Terminal Aerodrome Forecast
Issued by NWS Grand Junction, CO

Home | Current Version | Previous Version | Text Only | Print | Product List | Glossary On
Versions: 1 2 3 4 5 6 7 8 9 10 11 12 13 14 15 16 17 18 19 20 21 22 23 24 25 26 27 28 29 30 31
969
FTUS45 KGJT 260544
TAFGJT
TAF
KGJT 260544Z 2606/2706 12004KT P6SM SCT250
     FM261100 11007KT P6SM SCT250
     FM261700 25005KT P6SM SCT070 BKN250
     FM262100 29009KT P6SM VCSH BKN070
     FM270200 03010KT P6SM SCT070 BKN120
     FM270300 07008KT P6SM BKN120=

USA.gov is the U.S. government's official web portal to all federal, state and local government web resources and services.